createdAt,value
2022-08-25T00:03:28.969Z,96397.09
2022-08-25T00:08:40.760Z,96391.47
2022-08-25T00:13:46.784Z,96372.69
2022-08-25T00:18:54.312Z,96386.34
2022-08-25T00:23:58.076Z,96378.22
2022-08-25T00:29:02.237Z,96370.59
2022-08-25T00:34:11.481Z,96376.16
2022-08-25T00:39:15.311Z,96379.63
2022-08-25T00:44:19.623Z,96373.31
2022-08-25T00:49:40.466Z,96372.53
2022-08-25T00:54:50.744Z,96359.63
2022-08-25T00:59:54.224Z,96370.19
2022-08-25T01:04:57.799Z,96362.91
2022-08-25T01:10:01.926Z,96365.41
2022-08-25T01:15:09.659Z,96362.81
2022-08-25T01:20:15.552Z,96350.38
2022-08-25T01:25:51.934Z,96358.78
2022-08-25T01:30:56.577Z,96354.47
2022-08-25T01:36:00.440Z,96348.63
2022-08-25T01:41:04.249Z,96349.91
2022-08-25T01:46:07.697Z,96341.66
2022-08-25T01:51:11.667Z,96351.78
2022-08-25T01:56:16.868Z,96358.63
2022-08-25T02:01:24.969Z,96346.13
2022-08-25T02:06:33.202Z,96337.31
2022-08-25T02:11:38.279Z,96353.38
2022-08-25T02:16:48.517Z,96348.78
2022-08-25T02:21:53.619Z,96350.31
2022-08-25T02:26:58.850Z,96346.91
2022-08-25T02:32:04.264Z,96341.16
2022-08-25T02:37:07.935Z,96344.78
2022-08-25T02:42:11.656Z,96351.06
2022-08-25T02:47:15.464Z,96344.25
2022-08-25T02:52:19.403Z,96348.00
2022-08-25T02:57:23.006Z,96331.75
2022-08-25T03:02:27.701Z,96332.69
2022-08-25T03:07:31.238Z,96332.06
2022-08-25T03:12:39.191Z,96325.72
2022-08-25T03:17:45.668Z,96326.94
2022-08-25T03:22:50.574Z,96332.97
2022-08-25T03:27:54.221Z,96326.84
2022-08-25T03:32:57.876Z,96333.63
2022-08-25T03:38:02.963Z,96319.38
2022-08-25T03:43:06.599Z,96310.81
2022-08-25T03:48:10.134Z,96321.94
2022-08-25T03:53:16.837Z,96317.34
2022-08-25T03:58:20.643Z,96328.97
2022-08-25T04:03:25.783Z,96320.91
2022-08-25T04:08:29.442Z,96308.47
2022-08-25T04:13:35.760Z,96314.78
2022-08-25T04:18:40.036Z,96308.88
2022-08-25T04:23:49.682Z,96329.66
2022-08-25T04:28:54.024Z,96320.78
2022-08-25T04:33:58.501Z,96328.34
2022-08-25T04:39:03.006Z,96322.78
2022-08-25T04:44:07.169Z,96321.47
2022-08-25T04:49:13.452Z,96315.72
2022-08-25T04:54:18.521Z,96323.41
2022-08-25T04:59:22.210Z,96323.75
2022-08-25T05:04:25.687Z,96321.59
2022-08-25T05:09:33.098Z,96321.09
2022-08-25T05:14:39.527Z,96309.53
2022-08-25T05:19:43.546Z,96315.53
2022-08-25T05:24:47.088Z,96324.75
2022-08-25T05:29:50.552Z,96316.09
2022-08-25T05:34:53.979Z,96302.09
2022-08-25T05:39:57.511Z,96307.72
2022-08-25T05:45:05.407Z,96311.41
2022-08-25T05:50:10.081Z,96312.25
2022-08-25T05:55:13.560Z,96305.78
2022-08-25T06:00:19.583Z,96312.16
2022-08-25T06:05:24.201Z,96314.25
2022-08-25T06:10:29.386Z,96307.44
2022-08-25T06:15:34.798Z,96294.72
2022-08-25T06:20:38.223Z,96299.81
2022-08-25T06:25:41.809Z,96293.75
2022-08-25T06:30:45.396Z,96289.91
2022-08-25T06:35:48.859Z,96292.66
2022-08-25T06:40:53.591Z,96297.44
2022-08-25T06:45:57.264Z,96301.22
2022-08-25T06:51:01.030Z,96301.66
2022-08-25T06:56:06.833Z,96303.63
2022-08-25T07:01:15.655Z,96313.69
2022-08-25T07:06:23.317Z,96318.69
2022-08-25T07:11:27.303Z,96313.69
2022-08-25T07:16:32.342Z,96309.09
2022-08-25T07:21:40.689Z,96308.16
2022-08-25T07:26:44.537Z,96313.50
2022-08-25T07:31:48.369Z,96322.16
2022-08-25T07:36:51.871Z,96306.38
2022-08-25T07:41:55.753Z,96302.97
2022-08-25T07:46:59.553Z,96306.84
2022-08-25T07:52:06.725Z,96313.09
2022-08-25T07:57:10.844Z,96304.66
2022-08-25T08:02:18.902Z,96307.91
2022-08-25T08:07:43.510Z,96303.13
2022-08-25T08:12:48.468Z,96319.41
2022-08-25T08:17:54.854Z,96310.97
2022-08-25T08:22:58.870Z,96309.13
2022-08-25T08:28:02.474Z,96296.41
2022-08-25T08:33:11.408Z,96307.50
2022-08-25T08:38:20.867Z,96314.97
2022-08-25T08:43:33.221Z,96309.38
2022-08-25T08:48:57.497Z,96301.31
2022-08-25T08:54:16.615Z,96285.50
2022-08-25T08:59:30.099Z,96293.81
2022-08-25T09:04:45.152Z,96274.00
2022-08-25T09:09:48.916Z,96285.53
2022-08-25T09:15:52.661Z,96280.09
2022-08-25T09:21:21.384Z,96272.28
2022-08-25T09:26:30.898Z,96269.97
2022-08-25T09:31:39.687Z,96281.56
2022-08-25T09:36:46.217Z,96262.09
2022-08-25T09:41:57.097Z,96266.22
2022-08-25T09:47:21.460Z,96253.25
2022-08-25T09:52:41.270Z,96251.81
2022-08-25T09:57:56.804Z,96257.25
2022-08-25T10:03:22.753Z,96254.34
2022-08-25T10:08:52.400Z,96254.22
2022-08-25T10:14:05.973Z,96251.72
2022-08-25T10:19:15.345Z,96250.16
2022-08-25T10:24:18.806Z,96232.22
2022-08-25T10:29:27.966Z,96250.59
2022-08-25T10:34:57.060Z,96229.97
2022-08-25T10:40:22.849Z,96228.66
2022-08-25T10:51:56.440Z,96207.56
2022-08-25T10:58:12.942Z,96215.47
2022-08-25T11:04:19.852Z,96178.41
2022-08-25T11:21:35.981Z,96205.28
2022-08-25T11:27:24.776Z,96171.94
2022-08-25T11:33:02.148Z,96197.63
2022-08-25T11:38:48.010Z,96164.97
2022-08-25T11:43:57.732Z,96185.03
2022-08-25T11:49:47.440Z,96175.66
2022-08-25T11:56:01.461Z,96140.16
2022-08-25T12:01:54.648Z,96146.97
2022-08-25T12:08:13.246Z,96138.69
2022-08-25T12:13:46.225Z,96162.47
2022-08-25T12:18:52.073Z,96133.41
2022-08-25T12:24:20.400Z,96161.38
2022-08-25T12:30:01.857Z,96133.28
2022-08-25T12:36:19.745Z,96162.72
2022-08-25T12:44:23.447Z,96138.59
2022-08-25T12:49:08.405Z,96160.06
2022-08-25T13:07:30.169Z,96132.25
2022-08-25T13:19:16.072Z,96116.78
2022-08-25T13:25:46.353Z,96117.38
2022-08-25T13:31:43.054Z,96106.09
2022-08-25T13:37:32.780Z,96104.34
2022-08-25T13:43:27.629Z,96108.19
2022-08-25T13:49:49.370Z,96088.84
2022-08-25T13:56:14.036Z,96097.22
2022-08-25T14:02:19.596Z,96089.03
2022-08-25T14:14:46.406Z,96076.63
2022-08-25T14:20:11.317Z,96073.56
2022-08-25T14:32:18.303Z,96095.78
2022-08-25T15:02:20.006Z,96087.84
2022-08-25T15:14:29.120Z,96065.78
2022-08-25T15:21:19.339Z,96048.19
2022-08-25T15:26:24.794Z,96062.66
2022-08-25T15:32:57.575Z,96059.97
2022-08-25T15:39:10.838Z,96065.34
2022-08-25T15:49:53.450Z,96018.66
2022-08-25T15:55:48.652Z,96008.91
2022-08-25T16:13:02.639Z,96022.66
2022-08-25T16:19:01.337Z,96011.91
2022-08-25T16:24:08.662Z,95999.91
2022-08-25T16:29:17.545Z,96028.34
2022-08-25T16:34:20.664Z,96023.41
2022-08-25T16:39:24.152Z,96023.75
2022-08-25T16:44:27.934Z,96022.47
2022-08-25T16:49:31.849Z,96018.19
2022-08-25T16:54:53.206Z,96022.63
2022-08-25T16:59:57.231Z,96018.34
2022-08-25T17:05:08.171Z,96036.06
2022-08-25T17:26:59.750Z,96021.81
2022-08-25T17:32:06.158Z,96027.94
2022-08-25T17:37:09.321Z,96023.72
2022-08-25T17:42:12.663Z,96022.63
2022-08-25T17:47:15.735Z,96035.53
2022-08-25T17:52:22.460Z,96037.34
2022-08-25T17:57:28.624Z,96040.53
2022-08-25T18:02:32.001Z,96033.41
2022-08-25T18:07:38.236Z,96036.22
2022-08-25T18:12:41.316Z,96038.59
2022-08-25T18:17:46.500Z,96048.09
2022-08-25T18:22:51.189Z,96048.38
2022-08-25T18:27:56.110Z,96053.47
2022-08-25T18:33:00.286Z,96048.53
2022-08-25T18:38:22.413Z,96050.09
2022-08-25T18:43:28.906Z,96055.50
2022-08-25T18:48:35.314Z,96058.25
2022-08-25T18:53:50.119Z,96048.81
2022-08-25T18:58:53.830Z,96055.69
2022-08-25T19:03:58.065Z,96054.50
2022-08-25T19:09:01.237Z,96053.25
2022-08-25T19:14:04.981Z,96058.78
2022-08-25T19:19:15.757Z,96066.16
2022-08-25T19:24:20.042Z,96056.09
2022-08-25T19:29:24.848Z,96051.47
2022-08-25T19:34:32.768Z,96049.41
2022-08-25T19:39:39.059Z,96055.88
2022-08-25T19:44:43.399Z,96059.47
2022-08-25T19:49:47.454Z,96063.34
2022-08-25T19:54:54.025Z,96064.88
2022-08-25T19:59:57.427Z,96065.72
2022-08-25T20:05:00.685Z,96060.31
2022-08-25T20:10:07.399Z,96070.00
2022-08-25T20:15:12.609Z,96060.06
2022-08-25T20:20:19.608Z,96064.78
2022-08-25T20:25:26.107Z,96064.13
2022-08-25T20:30:31.294Z,96074.44
2022-08-25T20:36:35.251Z,96073.56
2022-08-25T20:41:58.621Z,96077.13
2022-08-25T20:47:08.211Z,96081.94
2022-08-25T20:52:12.803Z,96080.75
2022-08-25T20:57:16.575Z,96074.38
2022-08-25T21:02:24.448Z,96073.09
2022-08-25T21:07:27.572Z,96074.38
2022-08-25T21:12:32.209Z,96064.88
2022-08-25T21:17:35.621Z,96065.88
2022-08-25T21:22:41.897Z,96069.00
2022-08-25T21:27:46.049Z,96064.00
2022-08-25T21:32:54.066Z,96065.28
2022-08-25T21:37:58.687Z,96060.75
2022-08-25T21:43:02.617Z,96066.03
2022-08-25T21:48:05.905Z,96059.81
2022-08-25T21:53:10.044Z,96054.66
2022-08-25T21:58:14.620Z,96062.81
2022-08-25T22:03:20.625Z,96055.84
2022-08-25T22:08:30.553Z,96052.94
2022-08-25T22:13:35.929Z,96059.09
2022-08-25T22:18:44.355Z,96048.09
2022-08-25T22:23:47.796Z,96047.59
2022-08-25T22:28:51.197Z,96053.34
2022-08-25T22:33:55.227Z,96049.50
2022-08-25T22:39:01.432Z,96050.53
2022-08-25T22:44:07.383Z,96046.50
2022-08-25T22:49:10.832Z,96035.81
2022-08-25T22:54:15.749Z,96051.63
2022-08-25T22:59:20.048Z,96045.78
2022-08-25T23:04:26.675Z,96049.66
2022-08-25T23:09:30.009Z,96043.88
2022-08-25T23:14:37.573Z,96048.19
2022-08-25T23:19:46.617Z,96026.09
2022-08-25T23:24:54.181Z,96036.31
2022-08-25T23:29:57.423Z,96034.06
2022-08-25T23:35:00.476Z,96028.72
2022-08-25T23:40:06.388Z,96029.88
2022-08-25T23:45:10.530Z,96019.94
2022-08-25T23:50:14.866Z,96003.69
2022-08-25T23:55:17.881Z,96007.81
